Decoded Metar for VTPO (SUKHOTHAI in THAILAND) (IATA:N/A) | Meteo·Mobile Aviation Weather
aviador You're here:

VTPO Decoded Metar

SUKHOTHAI in THAILAND
Report Time2019-07-24 04:00:00
UTC Time2019-07-24 04:16:30
Flight Rules vfr VFR
Wind230° at 09 kt
W.Decomp.*RWY 18: 5.9 kt HW 6.8 kt RCW
Visibility9999 m
Phenomena:N/A
Clouds:Few 015 Hf
Scattered 025 Hf
Expected CloudBase > 2,400 ft AGL from Temp-Dew spread
CeilingNone
Temp29°C (ISA +14)
Dew Point23°C (70% RH)
Heat Index32.7°C
QNH1008 hPa
Density Alt2,362 ft
Elevation177 ft
Report Wrong Elevation
Raw Report
VTPO 240400Z 23009KT 9999 FEW015 SCT025 29/23 Q1008 TEMPO 7000
-RA=

Extra information for VTPO:More info

Metar Taf Metar & Taf Last 4 Metars F.Rules Stats Wind Profile Meteogram Temp Stats Airport Information Weather charts Add Link Nearby VenuesMetar ALERT Operation Metar Decoded Social comments